Time;durP1;ratioP1;P1;durP2;ratioP2;P2;SDS_P1;SDS_P2;PMS_P1;PMS_P2;Temp;Humidity;BMP_temperature;BMP_pressure;BME280_temperature;BME280_humidity;BME280_pressure;Samples;Min_cycle;Max_cycle;Signal;HPM_P1;HPM_P2
2023/07/15 00:00:43;;;;;;;;;;;;;;;29.37;43.86;100995.55;102717;1296;62544;-81
2023/07/15 00:03:09;;;;;;;;;;;;;;;29.37;43.90;100997.55;102722;1297;62234;-81
2023/07/15 00:05:35;;;;;;;;;;;;;;;29.37;43.73;100997.95;102729;1295;62616;-81
2023/07/15 00:08:01;;;;;;;;;;;;;;;29.37;43.86;100997.41;102760;1297;62270;-81
2023/07/15 00:10:26;;;;;;;;;;;;;;;29.37;43.87;100997.55;102747;1293;62274;-81
2023/07/15 00:12:52;;;;;;;;;;;;;;;29.37;43.76;100996.15;102782;1292;62238;-81
2023/07/15 00:15:18;;;;;;;;;;;;;;;29.36;43.79;100999.62;102703;1297;62203;-81
2023/07/15 00:17:43;;;;;;;;;;;;;;;29.36;43.85;101000.54;102680;1296;62208;-81
2023/07/15 00:20:14;;;;;;;;;;;;;;;29.36;43.83;101001.99;102751;1297;62336;-81
2023/07/15 00:22:41;;;;;;;;;;;;;;;29.36;43.82;101003.70;102723;1296;62108;-81
2023/07/15 00:25:09;;;;;;;;;;;;;;;29.36;43.87;101006.92;102707;1295;62212;-81
2023/07/15 00:27:35;;;;;;;;;;;;;;;29.36;43.97;101014.55;102771;1297;64705;-81
2023/07/15 00:30:01;;;;;;;;;;;;;;;29.36;43.77;101016.37;102709;1291;63476;-81
2023/07/15 00:32:26;;;;;;;;;;;;;;;29.36;43.89;101015.84;102717;1292;62284;-81
2023/07/15 00:34:52;;;;;;;;;;;;;;;29.36;43.98;101016.75;102733;1297;62271;-81
2023/07/15 00:37:17;;;;;;;;;;;;;;;29.35;43.98;101016.77;102701;1297;62922;-81
2023/07/15 00:39:43;;;;;;;;;;;;;;;29.36;43.80;101016.58;102777;1293;63375;-81
2023/07/15 00:42:13;;;;;;;;;;;;;;;29.35;43.91;101015.69;102743;1297;63044;-81
2023/07/15 00:44:39;;;;;;;;;;;;;;;29.35;43.89;101013.88;102756;1293;62208;-81
2023/07/15 00:47:23;;;;;;;;;;;;;;;29.35;43.94;101013.17;102749;1297;62214;-81
2023/07/15 00:49:49;;;;;;;;;;;;;;;29.35;43.95;101018.95;102695;1296;63868;-81
2023/07/15 00:52:16;;;;;;;;;;;;;;;29.35;43.98;101021.52;102794;1293;62296;-81
2023/07/15 00:54:45;;;;;;;;;;;;;;;29.35;43.93;101022.45;102725;1292;63338;-81
2023/07/15 00:57:12;;;;;;;;;;;;;;;29.35;43.98;101022.83;102700;1296;62129;-81
2023/07/15 00:59:40;;;;;;;;;;;;;;;29.35;44.01;101019.73;102716;1295;62256;-81
2023/07/15 01:02:06;;;;;;;;;;;;;;;29.35;43.97;101023.36;102712;1291;67523;-81
2023/07/15 01:04:32;;;;;;;;;;;;;;;29.34;43.91;101022.48;102786;1294;62094;-81
2023/07/15 01:06:58;;;;;;;;;;;;;;;29.34;43.93;101020.89;102753;1297;62210;-81
2023/07/15 01:09:24;;;;;;;;;;;;;;;29.34;43.96;101022.85;102727;1291;62134;-81
2023/07/15 01:11:49;;;;;;;;;;;;;;;29.34;43.95;101018.34;102765;1297;63409;-81
2023/07/15 01:14:15;;;;;;;;;;;;;;;29.34;43.81;101019.23;102850;1294;62265;-81
2023/07/15 01:16:40;;;;;;;;;;;;;;;29.34;43.98;101021.98;102760;1293;62213;-81
2023/07/15 01:19:06;;;;;;;;;;;;;;;29.34;43.85;101021.83;102694;1297;62305;-81
2023/07/15 01:21:35;;;;;;;;;;;;;;;29.34;44.07;101022.95;102735;1297;63302;-81
2023/07/15 01:24:06;;;;;;;;;;;;;;;29.34;43.95;101025.25;102716;1297;66503;-81
2023/07/15 01:26:32;;;;;;;;;;;;;;;29.34;43.99;101028.94;102789;1293;62213;-81
2023/07/15 01:28:58;;;;;;;;;;;;;;;29.33;43.98;101027.13;102798;1293;63387;-81
2023/07/15 01:31:23;;;;;;;;;;;;;;;29.34;43.95;101029.10;102688;1297;62173;-81
2023/07/15 01:33:49;;;;;;;;;;;;;;;29.32;44.10;101028.14;102811;1297;62288;-81
2023/07/15 01:36:14;;;;;;;;;;;;;;;29.33;43.84;101031.85;102753;1295;63832;-81
2023/07/15 01:38:40;;;;;;;;;;;;;;;29.33;43.89;101031.85;102730;1297;63366;-81
2023/07/15 01:41:09;;;;;;;;;;;;;;;29.33;43.97;101029.51;102683;1295;62233;-81
2023/07/15 01:43:35;;;;;;;;;;;;;;;29.33;43.80;101033.34;102701;1297;62140;-81
2023/07/15 01:46:00;;;;;;;;;;;;;;;29.33;43.90;101035.73;102731;1297;62557;-81
2023/07/15 01:48:26;;;;;;;;;;;;;;;29.33;44.05;101042.62;102762;1297;63561;-81
2023/07/15 01:50:51;;;;;;;;;;;;;;;29.33;43.93;101038.81;102851;1293;62659;-81
2023/07/15 01:53:17;;;;;;;;;;;;;;;29.33;43.97;101038.27;102744;1293;62126;-81
2023/07/15 01:55:42;;;;;;;;;;;;;;;29.32;43.99;101041.19;102713;1298;63465;-81
2023/07/15 01:58:08;;;;;;;;;;;;;;;29.32;43.95;101040.84;102724;1297;62222;-81
2023/07/15 02:00:34;;;;;;;;;;;;;;;29.32;43.97;101043.36;102698;1297;62294;-81
2023/07/15 02:03:00;;;;;;;;;;;;;;;29.32;43.83;101048.83;102768;1297;63561;-81
2023/07/15 02:05:25;;;;;;;;;;;;;;;29.32;43.80;101049.58;102751;1298;63387;-81
2023/07/15 02:07:51;;;;;;;;;;;;;;;29.32;43.88;101052.13;102711;1293;63470;-81
2023/07/15 02:10:17;;;;;;;;;;;;;;;29.32;43.96;101051.05;102703;1295;62337;-81
2023/07/15 02:12:43;;;;;;;;;;;;;;;29.31;43.90;101052.54;102770;1291;63192;-82
2023/07/15 02:15:08;;;;;;;;;;;;;;;29.32;44.01;101053.42;102717;1297;62195;-81
2023/07/15 02:17:34;;;;;;;;;;;;;;;29.31;43.86;101055.42;102621;1294;62204;-81
2023/07/15 02:19:59;;;;;;;;;;;;;;;29.32;44.01;101059.91;102741;1300;62371;-81
2023/07/15 02:22:25;;;;;;;;;;;;;;;29.32;44.07;101063.77;102540;1296;63395;-81
2023/07/15 02:24:51;;;;;;;;;;;;;;;29.32;44.02;101065.21;102565;1296;62394;-81
2023/07/15 02:27:16;;;;;;;;;;;;;;;29.31;43.79;101066.51;102637;1300;62182;-81
2023/07/15 02:29:42;;;;;;;;;;;;;;;29.31;43.93;101068.48;102519;1302;62360;-81
2023/07/15 02:32:08;;;;;;;;;;;;;;;29.31;43.85;101072.30;102586;1300;62448;-81
2023/07/15 02:34:34;;;;;;;;;;;;;;;29.31;43.89;101077.27;102637;1298;62891;-81
2023/07/15 02:37:00;;;;;;;;;;;;;;;29.31;43.88;101076.13;102639;1311;62193;-81
2023/07/15 02:39:26;;;;;;;;;;;;;;;29.31;43.84;101078.50;102577;1294;62117;-81
2023/07/15 02:41:52;;;;;;;;;;;;;;;29.30;43.84;101080.19;102557;1295;62285;-81
2023/07/15 02:44:17;;;;;;;;;;;;;;;29.31;43.96;101083.08;102624;1295;62466;-81
2023/07/15 02:46:42;;;;;;;;;;;;;;;29.31;44.01;101083.41;102542;1301;62320;-81
2023/07/15 02:49:08;;;;;;;;;;;;;;;29.31;43.91;101080.15;102718;1291;62205;-81
2023/07/15 02:51:34;;;;;;;;;;;;;;;29.30;43.93;101081.85;102734;1294;62380;-81
2023/07/15 02:54:00;;;;;;;;;;;;;;;29.30;43.99;101082.41;102787;1297;62210;-81
2023/07/15 02:56:25;;;;;;;;;;;;;;;29.30;44.08;101082.04;102772;1295;62211;-81
2023/07/15 02:58:51;;;;;;;;;;;;;;;29.31;44.01;101085.08;102709;1297;63471;-81
2023/07/15 03:01:16;;;;;;;;;;;;;;;29.30;43.94;101088.73;102707;1297;63413;-81
2023/07/15 03:03:42;;;;;;;;;;;;;;;29.31;44.04;101086.71;102806;1297;63455;-81
2023/07/15 03:06:09;;;;;;;;;;;;;;;29.30;44.07;101085.66;102738;1291;62593;-81
2023/07/15 03:08:34;;;;;;;;;;;;;;;29.30;44.03;101084.96;102679;1291;62095;-81
2023/07/15 03:11:00;;;;;;;;;;;;;;;29.30;43.94;101084.95;102732;1297;62220;-81
2023/07/15 03:13:25;;;;;;;;;;;;;;;29.30;44.07;101084.58;102725;1297;63453;-81
2023/07/15 03:15:52;;;;;;;;;;;;;;;29.30;43.93;101087.67;102707;1297;63132;-81
2023/07/15 03:18:17;;;;;;;;;;;;;;;29.30;44.04;101092.40;102716;1295;63105;-81
2023/07/15 03:20:42;;;;;;;;;;;;;;;29.30;44.02;101093.45;102788;1291;62545;-81
2023/07/15 03:23:08;;;;;;;;;;;;;;;29.30;44.11;101097.27;102723;1294;63416;-81
2023/07/15 03:25:33;;;;;;;;;;;;;;;29.30;44.01;101097.84;102738;1296;62254;-81
2023/07/15 03:27:59;;;;;;;;;;;;;;;29.30;43.99;101102.86;102717;1297;62226;-81
2023/07/15 03:30:24;;;;;;;;;;;;;;;29.30;44.01;101100.39;102733;1297;63462;-81
2023/07/15 03:32:53;;;;;;;;;;;;;;;29.30;44.11;101099.10;102772;1297;62222;-81
2023/07/15 03:35:19;;;;;;;;;;;;;;;29.30;43.98;101099.23;102837;1297;62180;-81
2023/07/15 03:37:44;;;;;;;;;;;;;;;29.30;43.95;101102.33;102608;1292;62216;-81
2023/07/15 03:40:13;;;;;;;;;;;;;;;29.30;44.14;101101.95;102708;1297;62244;-81
2023/07/15 03:42:38;;;;;;;;;;;;;;;29.31;44.19;101106.27;102706;1297;62214;-81
2023/07/15 03:45:11;;;;;;;;;;;;;;;29.31;44.19;101106.06;102704;1297;62535;-81
2023/07/15 03:47:37;;;;;;;;;;;;;;;29.30;43.91;101106.48;102699;1294;63149;-81
2023/07/15 03:50:03;;;;;;;;;;;;;;;29.31;44.12;101107.86;102734;1297;62235;-81
2023/07/15 03:52:28;;;;;;;;;;;;;;;29.31;44.01;101108.41;102716;1291;62180;-81
2023/07/15 03:54:54;;;;;;;;;;;;;;;29.31;44.03;101108.95;102755;1297;62124;-81
2023/07/15 03:57:19;;;;;;;;;;;;;;;29.31;44.02;101113.31;102731;1297;62209;-81
2023/07/15 03:59:45;;;;;;;;;;;;;;;29.31;44.06;101111.12;102704;1297;62201;-81
2023/07/15 04:02:10;;;;;;;;;;;;;;;29.31;43.93;101111.53;102725;1297;62255;-81
2023/07/15 04:04:36;;;;;;;;;;;;;;;29.31;43.79;101111.36;102734;1292;63371;-81
2023/07/15 04:07:01;;;;;;;;;;;;;;;29.30;43.99;101112.31;102825;1291;62169;-81
2023/07/15 04:09:27;;;;;;;;;;;;;;;29.30;44.02;101112.27;102753;1298;62188;-81
2023/07/15 04:11:55;;;;;;;;;;;;;;;29.31;44.06;101112.23;102737;1296;62358;-81
2023/07/15 04:14:21;;;;;;;;;;;;;;;29.31;44.05;101117.45;102792;1291;64747;-81
2023/07/15 04:16:47;;;;;;;;;;;;;;;29.31;43.98;101119.29;102718;1291;63378;-81
2023/07/15 04:19:13;;;;;;;;;;;;;;;29.31;44.09;101123.06;102792;1292;62142;-81
2023/07/15 04:21:38;;;;;;;;;;;;;;;29.31;44.03;101121.60;102677;1292;62368;-81
2023/07/15 04:24:04;;;;;;;;;;;;;;;29.32;44.05;101126.97;102707;1297;62226;-81
2023/07/15 04:26:30;;;;;;;;;;;;;;;29.32;44.05;101120.11;102783;1297;62288;-81
2023/07/15 04:28:55;;;;;;;;;;;;;;;29.32;43.94;101124.21;102748;1291;62278;-81
2023/07/15 04:31:21;;;;;;;;;;;;;;;29.32;44.04;101127.27;102737;1291;62264;-81
2023/07/15 04:33:46;;;;;;;;;;;;;;;29.32;43.92;101123.84;102733;1291;63416;-81
2023/07/15 04:36:12;;;;;;;;;;;;;;;29.33;44.15;101125.02;102700;1291;62216;-81
2023/07/15 04:38:37;;;;;;;;;;;;;;;29.33;44.04;101126.67;102727;1297;62585;-81
2023/07/15 04:41:03;;;;;;;;;;;;;;;29.34;43.92;101124.41;102716;1296;67546;-81
2023/07/15 04:43:29;;;;;;;;;;;;;;;29.34;44.04;101123.84;102682;1291;62251;-81
2023/07/15 04:45:54;;;;;;;;;;;;;;;29.35;43.92;101131.42;102734;1297;62198;-81
2023/07/15 04:48:20;;;;;;;;;;;;;;;29.34;44.02;101135.23;102717;1291;62281;-81
2023/07/15 04:50:45;;;;;;;;;;;;;;;29.36;43.86;101135.82;102772;1291;63238;-81
2023/07/15 04:53:11;;;;;;;;;;;;;;;29.37;43.82;101137.55;102716;1297;67713;-81
2023/07/15 04:55:36;;;;;;;;;;;;;;;29.37;44.06;101139.15;102692;1291;62249;-81
2023/07/15 04:58:02;;;;;;;;;;;;;;;29.37;44.03;101136.26;102720;1291;62327;-81
2023/07/15 05:00:27;;;;;;;;;;;;;;;29.37;44.00;101139.19;102704;1293;63340;-81
2023/07/15 05:02:53;;;;;;;;;;;;;;;29.37;43.88;101142.42;102749;1297;62221;-81
2023/07/15 05:05:18;;;;;;;;;;;;;;;29.37;44.01;101139.15;102661;1297;66720;-81
2023/07/15 05:07:44;;;;;;;;;;;;;;;29.38;43.88;101137.84;102749;1291;62239;-81
2023/07/15 05:10:10;;;;;;;;;;;;;;;29.37;43.94;101139.63;102708;1291;62218;-81
2023/07/15 05:12:36;;;;;;;;;;;;;;;29.38;44.07;101143.58;102806;1295;62216;-81
2023/07/15 05:15:02;;;;;;;;;;;;;;;29.38;43.97;101146.83;102740;1297;63421;-81
2023/07/15 05:17:28;;;;;;;;;;;;;;;29.39;44.10;101148.77;102685;1291;62098;-81
2023/07/15 05:19:53;;;;;;;;;;;;;;;29.39;43.95;101150.73;102742;1291;62129;-81
2023/07/15 05:22:18;;;;;;;;;;;;;;;29.38;43.91;101151.69;102678;1291;63399;-81
2023/07/15 05:24:44;;;;;;;;;;;;;;;29.39;43.98;101156.39;102780;1291;62231;-81
2023/07/15 05:27:10;;;;;;;;;;;;;;;29.39;43.81;101157.86;102697;1299;62261;-81
2023/07/15 05:29:36;;;;;;;;;;;;;;;29.39;44.02;101162.35;102796;1291;62463;-81
2023/07/15 05:32:01;;;;;;;;;;;;;;;29.39;43.98;101164.17;102785;1296;62213;-81
2023/07/15 05:34:27;;;;;;;;;;;;;;;29.39;43.97;101162.71;102715;1291;62226;-81
2023/07/15 05:36:53;;;;;;;;;;;;;;;29.38;43.97;101164.76;102713;1291;63545;-81
2023/07/15 05:39:19;;;;;;;;;;;;;;;29.38;43.90;101166.43;102702;1292;63277;-81
2023/07/15 05:41:44;;;;;;;;;;;;;;;29.38;43.81;101170.23;102721;1292;62280;-81
2023/07/15 05:44:10;;;;;;;;;;;;;;;29.38;43.79;101171.55;102721;1291;62212;-81
2023/07/15 05:46:35;;;;;;;;;;;;;;;29.38;44.06;101171.90;102732;1292;63541;-81
2023/07/15 05:49:03;;;;;;;;;;;;;;;29.37;43.80;101175.39;102761;1297;62201;-81
2023/07/15 05:51:29;;;;;;;;;;;;;;;29.38;43.81;101175.88;102724;1294;67399;-81
2023/07/15 05:53:54;;;;;;;;;;;;;;;29.38;43.79;101176.90;102737;1297;62488;-81
2023/07/15 05:56:20;;;;;;;;;;;;;;;29.40;43.69;101182.01;102742;1292;62299;-81
2023/07/15 05:58:45;;;;;;;;;;;;;;;29.40;44.03;101181.80;102715;1297;63561;-81
2023/07/15 06:01:11;;;;;;;;;;;;;;;29.41;43.92;101181.36;102755;1291;62185;-81
2023/07/15 06:03:36;;;;;;;;;;;;;;;29.42;44.01;101178.36;102731;1295;62216;-81
2023/07/15 06:06:02;;;;;;;;;;;;;;;29.43;43.73;101177.19;102756;1291;62526;-81
2023/07/15 06:08:28;;;;;;;;;;;;;;;29.44;43.74;101175.45;102732;1291;63433;-81
2023/07/15 06:10:54;;;;;;;;;;;;;;;29.45;43.88;101175.32;102688;1291;62305;-81
2023/07/15 06:13:19;;;;;;;;;;;;;;;29.46;43.99;101176.67;102666;1296;62268;-81
2023/07/15 06:15:51;;;;;;;;;;;;;;;29.47;43.83;101174.99;102771;1291;62415;-81
2023/07/15 06:18:17;;;;;;;;;;;;;;;29.47;43.82;101176.36;102706;1297;62184;-80
2023/07/15 06:20:42;;;;;;;;;;;;;;;29.49;43.85;101179.13;102754;1291;62552;-81
2023/07/15 06:23:08;;;;;;;;;;;;;;;29.50;43.86;101178.63;102683;1297;62144;-81
2023/07/15 06:25:34;;;;;;;;;;;;;;;29.50;43.77;101179.85;102703;1291;62215;-81
2023/07/15 06:27:59;;;;;;;;;;;;;;;29.52;43.80;101178.48;102694;1292;62290;-81
2023/07/15 06:30:26;;;;;;;;;;;;;;;29.52;43.87;101178.00;102778;1291;62272;-81
2023/07/15 06:32:51;;;;;;;;;;;;;;;29.53;43.79;101179.77;102738;1295;62222;-81
2023/07/15 06:35:17;;;;;;;;;;;;;;;29.54;43.90;101178.77;102705;1291;62210;-81
2023/07/15 06:37:45;;;;;;;;;;;;;;;29.54;43.81;101173.12;102748;1291;62865;-81
2023/07/15 06:40:11;;;;;;;;;;;;;;;29.55;43.79;101177.21;102748;1291;62205;-82
2023/07/15 06:42:37;;;;;;;;;;;;;;;29.56;43.70;101179.64;102689;1291;62243;-81
2023/07/15 06:45:02;;;;;;;;;;;;;;;29.56;43.61;101174.73;102689;1291;62271;-82
2023/07/15 06:47:28;;;;;;;;;;;;;;;29.57;43.71;101180.08;102720;1291;62219;-82
2023/07/15 06:49:53;;;;;;;;;;;;;;;29.57;43.75;101177.57;102743;1297;62259;-81
2023/07/15 06:52:19;;;;;;;;;;;;;;;29.57;43.72;101175.49;102766;1291;63494;-81
2023/07/15 06:54:44;;;;;;;;;;;;;;;29.58;43.80;101169.10;102701;1297;62211;-81
2023/07/15 06:57:10;;;;;;;;;;;;;;;29.58;43.75;101165.77;102721;1291;62210;-81
2023/07/15 06:59:35;;;;;;;;;;;;;;;29.59;43.58;101169.35;102776;1291;62324;-81
2023/07/15 07:02:00;;;;;;;;;;;;;;;29.60;43.74;101174.02;102734;1291;63388;-81
2023/07/15 07:04:26;;;;;;;;;;;;;;;29.60;43.70;101172.73;102680;1291;62221;-81
2023/07/15 07:06:51;;;;;;;;;;;;;;;29.61;43.68;101168.48;102700;1297;63472;-81
2023/07/15 07:09:17;;;;;;;;;;;;;;;29.61;43.72;101168.48;102243;1296;672488;-81
2023/07/15 07:11:42;;;;;;;;;;;;;;;29.61;43.62;101171.51;102709;1291;63514;-81
2023/07/15 07:14:09;;;;;;;;;;;;;;;29.62;43.66;101171.85;102754;1292;62204;-81
2023/07/15 07:16:34;;;;;;;;;;;;;;;29.62;43.58;101172.19;102750;1293;62183;-81
2023/07/15 07:19:00;;;;;;;;;;;;;;;29.62;43.68;101176.16;102697;1291;63264;-81
2023/07/15 07:21:25;;;;;;;;;;;;;;;29.63;43.67;101172.66;102688;1297;62297;-81
2023/07/15 07:23:55;;;;;;;;;;;;;;;29.63;43.69;101172.64;102735;1291;62975;-81
2023/07/15 07:26:20;;;;;;;;;;;;;;;29.63;43.72;101172.24;102714;1293;62213;-81
2023/07/15 07:28:46;;;;;;;;;;;;;;;29.63;43.55;101173.53;102823;1291;62153;-81
2023/07/15 07:31:11;;;;;;;;;;;;;;;29.63;43.65;101173.16;102687;1297;62236;-81
2023/07/15 07:33:37;;;;;;;;;;;;;;;29.64;43.65;101171.47;102687;1291;62210;-81
2023/07/15 07:36:03;;;;;;;;;;;;;;;29.64;43.67;101169.46;102747;1291;63181;-81
2023/07/15 07:38:29;;;;;;;;;;;;;;;29.64;43.72;101165.11;102722;1293;62172;-81
2023/07/15 07:40:54;;;;;;;;;;;;;;;29.64;43.55;101165.99;102708;1292;62297;-81
2023/07/15 07:43:20;;;;;;;;;;;;;;;29.64;43.66;101160.17;102742;1291;63600;-81
2023/07/15 07:45:45;;;;;;;;;;;;;;;29.64;43.59;101161.27;102718;1291;63478;-81
2023/07/15 07:48:11;;;;;;;;;;;;;;;29.64;43.60;101158.00;102718;1291;63333;-81
2023/07/15 07:50:36;;;;;;;;;;;;;;;29.65;43.58;101161.34;102712;1295;63459;-81
2023/07/15 07:53:01;;;;;;;;;;;;;;;29.65;43.64;101155.23;102726;1291;62213;-81
2023/07/15 07:55:27;;;;;;;;;;;;;;;29.64;43.62;101155.79;102706;1291;63331;-81
2023/07/15 07:57:53;;;;;;;;;;;;;;;29.65;43.61;101158.83;102758;1291;63383;-81
2023/07/15 08:00:18;;;;;;;;;;;;;;;29.65;43.57;101160.98;102717;1292;62285;-81
2023/07/15 08:02:44;;;;;;;;;;;;;;;29.65;43.61;101161.85;102713;1291;63485;-81
2023/07/15 08:05:09;;;;;;;;;;;;;;;29.65;43.53;101160.21;102700;1297;62201;-81
2023/07/15 08:07:35;;;;;;;;;;;;;;;29.65;43.67;101153.86;102732;1294;62203;-81
2023/07/15 08:10:00;;;;;;;;;;;;;;;29.66;43.51;101155.66;102681;1291;63488;-81
2023/07/15 08:12:26;;;;;;;;;;;;;;;29.65;43.74;101156.59;102750;1291;62218;-81
2023/07/15 08:14:52;;;;;;;;;;;;;;;29.65;43.62;101158.02;102761;1291;63419;-81
2023/07/15 08:17:17;;;;;;;;;;;;;;;29.66;43.51;101156.52;102716;1291;62583;-81
2023/07/15 08:19:43;;;;;;;;;;;;;;;29.66;43.56;101154.00;102711;1297;62225;-81
2023/07/15 08:22:08;;;;;;;;;;;;;;;29.65;43.61;101150.09;102719;1292;62134;-81
2023/07/15 08:24:34;;;;;;;;;;;;;;;29.66;43.50;101156.35;102688;1297;62563;-81
2023/07/15 08:26:59;;;;;;;;;;;;;;;29.66;43.56;101157.95;102744;1292;62724;-81
2023/07/15 08:29:25;;;;;;;;;;;;;;;29.66;43.54;101148.13;102698;1295;62300;-81
2023/07/15 08:31:50;;;;;;;;;;;;;;;29.67;43.45;101149.17;102733;1291;62203;-81
2023/07/15 08:34:16;;;;;;;;;;;;;;;29.67;43.57;101151.89;102673;1297;63412;-81
2023/07/15 08:36:41;;;;;;;;;;;;;;;29.67;43.55;101152.23;102729;1297;62165;-81
2023/07/15 08:39:06;;;;;;;;;;;;;;;29.67;43.39;101151.12;102767;1291;62233;-81
2023/07/15 08:41:32;;;;;;;;;;;;;;;29.67;43.58;101148.95;102776;1291;63427;-81
2023/07/15 08:43:57;;;;;;;;;;;;;;;29.67;43.61;101150.95;102704;1291;62257;-81
2023/07/15 08:46:27;;;;;;;;;;;;;;;29.68;43.54;101151.64;102715;1297;62294;-81
2023/07/15 08:48:53;;;;;;;;;;;;;;;29.68;43.48;101150.34;102756;1291;62219;-81
2023/07/15 08:51:20;;;;;;;;;;;;;;;29.68;43.55;101148.85;102772;1291;62258;-81
2023/07/15 08:53:45;;;;;;;;;;;;;;;29.68;43.54;101147.55;102741;1291;62227;-81
2023/07/15 08:56:11;;;;;;;;;;;;;;;29.68;43.51;101141.27;102674;1297;62219;-81
2023/07/15 08:58:36;;;;;;;;;;;;;;;29.68;43.55;101139.30;102746;1295;62232;-81
2023/07/15 09:01:02;;;;;;;;;;;;;;;29.68;43.40;101141.19;102748;1297;63541;-81
2023/07/15 09:03:28;;;;;;;;;;;;;;;29.69;43.48;101138.81;102670;1291;62119;-81
2023/07/15 09:05:53;;;;;;;;;;;;;;;29.69;43.49;101133.72;102725;1291;63261;-81
2023/07/15 09:08:19;;;;;;;;;;;;;;;29.69;43.60;101133.73;102738;1295;62152;-81
2023/07/15 09:10:55;;;;;;;;;;;;;;;29.69;43.55;101136.45;102784;1291;62223;-81
2023/07/15 09:13:24;;;;;;;;;;;;;;;29.68;43.50;101130.85;102662;1296;63063;-81
2023/07/15 09:15:50;;;;;;;;;;;;;;;29.69;43.42;101136.08;102770;1291;64583;-81
2023/07/15 09:18:16;;;;;;;;;;;;;;;29.70;43.47;101135.68;102702;1291;62310;-81
2023/07/15 09:20:41;;;;;;;;;;;;;;;29.69;43.50;101134.04;102724;1295;62289;-81
2023/07/15 09:23:07;;;;;;;;;;;;;;;29.69;43.52;101132.73;102790;1291;63487;-81
2023/07/15 09:25:35;;;;;;;;;;;;;;;29.69;43.48;101126.96;102682;1297;62229;-81
2023/07/15 09:28:01;;;;;;;;;;;;;;;29.70;43.60;101125.13;102706;1292;62189;-81
2023/07/15 09:30:27;;;;;;;;;;;;;;;29.69;43.62;101124.95;102741;1291;62279;-81
2023/07/15 09:32:52;;;;;;;;;;;;;;;29.69;43.48;101129.30;102735;1291;62146;-81
2023/07/15 09:35:18;;;;;;;;;;;;;;;29.70;43.46;101122.38;102761;1291;62216;-81
2023/07/15 09:37:46;;;;;;;;;;;;;;;29.70;43.40;101117.69;102736;1292;63465;-81
2023/07/15 09:40:11;;;;;;;;;;;;;;;29.69;43.51;101120.43;102686;1291;66828;-81
2023/07/15 09:42:53;;;;;;;;;;;;;;;29.69;43.50;101112.64;102733;1291;62320;-81
2023/07/15 09:45:37;;;;;;;;;;;;;;;29.69;43.42;101107.92;102699;1291;62105;-81
2023/07/15 09:48:12;;;;;;;;;;;;;;;29.69;43.41;101108.47;102663;1297;65003;-81
2023/07/15 09:50:39;;;;;;;;;;;;;;;29.69;43.47;101106.11;102748;1296;66787;-81
2023/07/15 09:53:04;;;;;;;;;;;;;;;29.69;43.55;101111.92;102693;1296;62117;-81
2023/07/15 09:55:31;;;;;;;;;;;;;;;29.69;43.46;101107.41;102735;1292;62228;-81
2023/07/15 09:57:58;;;;;;;;;;;;;;;29.69;43.42;101103.05;102709;1291;63385;-81
2023/07/15 10:00:24;;;;;;;;;;;;;;;29.69;43.36;101107.20;102753;1291;62209;-81
2023/07/15 10:02:52;;;;;;;;;;;;;;;29.69;43.36;101106.48;102737;1291;62233;-81
2023/07/15 10:05:17;;;;;;;;;;;;;;;29.69;43.55;101107.44;102689;1295;62206;-81
2023/07/15 10:07:43;;;;;;;;;;;;;;;29.69;43.38;101108.89;102665;1291;62227;-81
2023/07/15 10:10:08;;;;;;;;;;;;;;;29.68;43.43;101105.87;102803;1292;62549;-81
2023/07/15 10:12:34;;;;;;;;;;;;;;;29.68;43.37;101106.27;102701;1291;62197;-81
2023/07/15 10:15:00;;;;;;;;;;;;;;;29.69;43.45;101113.62;102689;1291;62104;-81
2023/07/15 10:17:32;;;;;;;;;;;;;;;29.68;43.41;101110.41;102758;1291;62737;-81
2023/07/15 10:20:10;;;;;;;;;;;;;;;29.68;43.30;101108.78;102746;1291;64622;-81
2023/07/15 10:22:36;;;;;;;;;;;;;;;29.68;43.45;101102.63;102660;1292;66648;-81
2023/07/15 10:25:02;;;;;;;;;;;;;;;29.67;43.47;101096.89;102738;1291;62209;-81
2023/07/15 10:27:28;;;;;;;;;;;;;;;29.68;43.45;101097.02;102735;1291;62148;-81
2023/07/15 10:30:12;;;;;;;;;;;;;;;29.68;43.46;101094.52;102710;1292;63376;-81
2023/07/15 10:32:37;;;;;;;;;;;;;;;29.67;43.41;101088.01;102650;1291;67805;-81
2023/07/15 10:35:04;;;;;;;;;;;;;;;29.67;43.40;101085.46;102728;1294;62231;-81
2023/07/15 10:37:33;;;;;;;;;;;;;;;29.68;43.40;101083.25;102767;1291;63405;-81
2023/07/15 10:39:58;;;;;;;;;;;;;;;29.67;43.44;101082.23;102714;1291;64794;-81
2023/07/15 10:42:24;;;;;;;;;;;;;;;29.67;43.43;101078.08;102691;1291;63181;-81
2023/07/15 10:44:55;;;;;;;;;;;;;;;29.67;43.50;101075.91;102690;1295;62297;-81
2023/07/15 10:47:21;;;;;;;;;;;;;;;29.66;43.56;101077.56;102787;1292;62206;-81
2023/07/15 10:49:49;;;;;;;;;;;;;;;29.67;43.41;101073.20;102640;1292;62273;-81
2023/07/15 10:52:19;;;;;;;;;;;;;;;29.67;43.37;101075.55;102694;1292;67657;-81
2023/07/15 10:54:44;;;;;;;;;;;;;;;29.66;43.44;101070.16;102680;1291;62193;-81
2023/07/15 10:57:16;;;;;;;;;;;;;;;29.66;43.50;101068.17;102740;1291;62345;-81
2023/07/15 10:59:42;;;;;;;;;;;;;;;29.66;43.52;101069.11;102727;1291;63686;-81
2023/07/15 11:02:08;;;;;;;;;;;;;;;29.66;43.58;101069.67;102686;1296;62217;-81
2023/07/15 11:04:34;;;;;;;;;;;;;;;29.66;43.45;101073.47;102753;1291;62294;-81
2023/07/15 11:07:03;;;;;;;;;;;;;;;29.66;43.39;101072.38;102787;1291;63267;-81
2023/07/15 11:09:28;;;;;;;;;;;;;;;29.65;43.54;101070.79;102776;1292;64745;-82
2023/07/15 11:11:54;;;;;;;;;;;;;;;29.66;43.52;101070.72;102716;1291;62339;-81
2023/07/15 11:14:26;;;;;;;;;;;;;;;29.66;43.52;101066.40;102706;1291;63818;-81
2023/07/15 11:16:55;;;;;;;;;;;;;;;29.66;43.40;101061.83;102722;1297;62220;-81
2023/07/15 11:19:21;;;;;;;;;;;;;;;29.66;43.43;101061.13;102729;1297;64983;-81
2023/07/15 11:21:47;;;;;;;;;;;;;;;29.66;43.61;101062.73;102714;1291;62205;-81
2023/07/15 11:24:13;;;;;;;;;;;;;;;29.66;43.54;101059.48;102726;1292;63397;-81
2023/07/15 11:26:39;;;;;;;;;;;;;;;29.66;43.58;101057.52;102752;1291;62211;-81
2023/07/15 11:29:14;;;;;;;;;;;;;;;29.66;43.55;101058.79;102693;1296;62095;-81
2023/07/15 11:31:43;;;;;;;;;;;;;;;29.66;43.52;101056.02;102738;1291;66544;-81
2023/07/15 11:34:09;;;;;;;;;;;;;;;29.66;43.64;101055.29;102790;1291;62196;-81
2023/07/15 11:36:36;;;;;;;;;;;;;;;29.67;43.60;101055.63;102728;1291;62198;-81
2023/07/15 11:39:04;;;;;;;;;;;;;;;29.66;43.53;101051.54;102773;1296;64722;-81
2023/07/15 11:41:31;;;;;;;;;;;;;;;29.66;43.52;101052.02;102746;1291;67385;-81
2023/07/15 11:43:57;;;;;;;;;;;;;;;29.66;43.64;101047.33;102794;1292;62236;-81
2023/07/15 11:46:22;;;;;;;;;;;;;;;29.67;43.49;101040.93;102734;1294;63115;-81
2023/07/15 11:48:48;;;;;;;;;;;;;;;29.66;43.45;101036.98;102752;1291;63412;-81
2023/07/15 11:51:13;;;;;;;;;;;;;;;29.66;43.57;101031.89;102687;1291;62118;-81
2023/07/15 11:53:41;;;;;;;;;;;;;;;29.67;43.63;101024.23;102793;1292;62125;-81
2023/07/15 11:56:07;;;;;;;;;;;;;;;29.67;43.66;101024.04;102766;1291;62179;-81
2023/07/15 11:58:53;;;;;;;;;;;;;;;29.67;43.65;101013.52;102738;1291;62297;-81
2023/07/15 12:01:19;;;;;;;;;;;;;;;29.67;43.53;101014.21;102742;1292;64814;-81
2023/07/15 12:03:45;;;;;;;;;;;;;;;29.67;43.55;101022.19;102715;1291;66435;-81
2023/07/15 12:06:21;;;;;;;;;;;;;;;29.68;43.51;101015.61;102769;1291;62259;-81
2023/07/15 12:09:05;;;;;;;;;;;;;;;29.68;43.46;101013.23;102760;1291;62213;-81
2023/07/15 12:11:31;;;;;;;;;;;;;;;29.68;43.65;101006.70;102720;1292;64546;-81
2023/07/15 12:13:57;;;;;;;;;;;;;;;29.68;43.69;101008.30;102781;1291;62211;-81
2023/07/15 12:16:23;;;;;;;;;;;;;;;29.68;43.51;101005.16;102778;1291;63519;-81
2023/07/15 12:18:49;;;;;;;;;;;;;;;29.69;43.47;101006.61;102699;1291;62301;-81
2023/07/15 12:21:14;;;;;;;;;;;;;;;29.69;43.51;101003.14;102743;1297;62273;-81